createdAt,value
2023-02-26T00:02:45.183Z,101543.00
2023-02-26T00:05:24.248Z,101539.00
2023-02-26T00:08:41.893Z,101545.00
2023-02-26T00:11:18.357Z,101546.00
2023-02-26T00:13:54.370Z,101545.00
2023-02-26T00:16:44.768Z,101547.00
2023-02-26T00:19:19.454Z,101542.00
2023-02-26T00:21:57.908Z,101535.00
2023-02-26T00:24:33.627Z,101550.00
2023-02-26T00:27:08.718Z,101557.00
2023-02-26T00:29:44.574Z,101542.00
2023-02-26T00:32:20.105Z,101540.00
2023-02-26T00:34:53.980Z,101536.00
2023-02-26T00:37:44.325Z,101540.00
2023-02-26T00:40:44.553Z,101533.00
2023-02-26T00:43:24.294Z,101536.00
2023-02-26T00:45:59.701Z,101536.00
2023-02-26T00:48:53.133Z,101533.00
2023-02-26T00:51:37.560Z,101534.00
2023-02-26T00:54:27.017Z,101529.00
2023-02-26T00:57:01.939Z,101522.00
2023-02-26T00:59:38.333Z,101521.00
2023-02-26T01:02:11.463Z,101521.00
2023-02-26T01:04:46.169Z,101520.00
2023-02-26T01:07:20.670Z,101515.00
2023-02-26T01:09:55.062Z,101512.00
2023-02-26T01:12:28.620Z,101514.00
2023-02-26T01:15:02.425Z,101509.00
2023-02-26T01:17:46.024Z,101506.00
2023-02-26T01:20:31.074Z,101505.00
2023-02-26T01:23:11.840Z,101518.00
2023-02-26T01:25:57.031Z,101504.00
2023-02-26T01:28:31.125Z,101518.00
2023-02-26T01:31:07.081Z,101516.00
2023-02-26T01:33:48.041Z,101498.00
2023-02-26T01:36:23.158Z,101504.00
2023-02-26T01:39:30.941Z,101507.00
2023-02-26T01:42:11.288Z,101507.00
2023-02-26T01:45:03.800Z,101511.00
2023-02-26T01:47:41.863Z,101497.00
2023-02-26T01:50:22.853Z,101499.00
2023-02-26T01:53:03.700Z,101495.00
2023-02-26T01:55:36.631Z,101490.00
2023-02-26T01:58:09.719Z,101488.00
2023-02-26T02:00:43.635Z,101479.00
2023-02-26T02:03:16.841Z,101473.00
2023-02-26T02:05:58.206Z,101474.00
2023-02-26T02:08:31.126Z,101471.00
2023-02-26T02:11:04.041Z,101462.00
2023-02-26T02:13:47.271Z,101450.00
2023-02-26T02:16:47.849Z,101452.00
2023-02-26T02:19:36.858Z,101452.00
2023-02-26T02:22:38.494Z,101447.00
2023-02-26T02:25:54.351Z,101454.00
2023-02-26T02:29:01.641Z,101459.00
2023-02-26T02:31:55.949Z,101454.00
2023-02-26T02:34:53.908Z,101447.00
2023-02-26T02:37:46.781Z,101457.00
2023-02-26T02:40:38.549Z,101445.00
2023-02-26T02:44:05.725Z,101409.00
2023-02-26T02:46:30.810Z,101441.00
2023-02-26T02:49:15.981Z,101425.00
2023-02-26T02:51:51.283Z,101424.00
2023-02-26T02:54:48.556Z,101421.00
2023-02-26T02:57:27.538Z,101420.00
2023-02-26T03:00:05.336Z,101427.00
2023-02-26T03:02:52.402Z,101431.00
2023-02-26T03:05:25.509Z,101420.00
2023-02-26T03:08:09.838Z,101421.00
2023-02-26T03:10:47.350Z,101416.00
2023-02-26T03:13:21.551Z,101418.00
2023-02-26T03:16:21.685Z,101416.00
2023-02-26T03:18:56.692Z,101412.00
2023-02-26T03:21:39.883Z,101412.00
2023-02-26T03:24:32.217Z,101417.00
2023-02-26T03:27:48.298Z,101422.00
2023-02-26T03:36:48.799Z,101400.00
2023-02-26T03:39:29.715Z,101394.00
2023-02-26T03:42:04.728Z,101380.00
2023-02-26T03:45:12.200Z,101381.00
2023-02-26T03:47:51.839Z,101370.00
2023-02-26T03:50:42.175Z,101368.00
2023-02-26T03:53:20.164Z,101374.00
2023-02-26T03:56:01.112Z,101379.00
2023-02-26T03:58:43.039Z,101372.00
2023-02-26T04:01:23.536Z,101388.00
2023-02-26T04:07:40.457Z,101380.00
2023-02-26T04:13:26.896Z,101384.00
2023-02-26T04:15:59.209Z,101381.00
2023-02-26T04:18:39.558Z,101389.00
2023-02-26T04:24:14.116Z,101375.00
2023-02-26T04:42:51.140Z,101381.00
2023-02-26T04:45:25.846Z,101383.00
2023-02-26T04:47:58.731Z,101368.00
2023-02-26T04:50:37.970Z,101375.00
2023-02-26T04:56:21.256Z,101381.00
2023-02-26T05:01:51.030Z,101370.00
2023-02-26T05:04:24.034Z,101374.00
2023-02-26T05:07:05.176Z,101368.00
2023-02-26T05:09:39.034Z,101380.00
2023-02-26T05:12:15.844Z,101383.00
2023-02-26T05:14:52.314Z,101390.00
2023-02-26T05:17:26.417Z,101388.00
2023-02-26T05:20:08.474Z,101380.00
2023-02-26T05:22:47.211Z,101381.00
2023-02-26T05:25:43.612Z,101371.00
2023-02-26T05:31:08.735Z,101375.00
2023-02-26T05:33:41.894Z,101381.00
2023-02-26T05:36:34.661Z,101382.00
2023-02-26T05:39:31.149Z,101380.00
2023-02-26T05:41:52.134Z,101371.00
2023-02-26T05:44:33.886Z,101366.00
2023-02-26T05:47:25.225Z,101357.00
2023-02-26T05:52:55.738Z,101373.00
2023-02-26T05:55:34.486Z,101368.00
2023-02-26T05:58:23.676Z,101373.00
2023-02-26T06:15:50.302Z,101356.00
2023-02-26T06:17:50.340Z,101371.00
2023-02-26T06:20:43.953Z,101378.00
2023-02-26T06:23:46.734Z,101383.00
2023-02-26T06:51:29.015Z,101382.00
2023-02-26T06:53:37.017Z,101386.00
2023-02-26T07:57:53.624Z,101394.00
2023-02-26T08:20:30.963Z,101409.00
2023-02-26T09:01:13.986Z,101440.00
2023-02-26T10:29:45.867Z,101396.00
2023-02-26T10:35:38.423Z,101390.00
2023-02-26T10:41:37.870Z,101389.00
2023-02-26T10:57:06.974Z,101369.00
2023-02-26T10:59:53.903Z,101364.00
2023-02-26T11:06:12.448Z,101357.00
2023-02-26T11:09:08.843Z,101361.00
2023-02-26T11:18:41.076Z,101347.00
2023-02-26T12:03:05.983Z,101333.00
2023-02-26T12:08:35.407Z,101319.00
2023-02-26T12:15:50.789Z,101323.00
2023-02-26T12:18:40.713Z,101319.00
2023-02-26T12:22:54.585Z,101324.00
2023-02-26T12:28:41.659Z,101321.00
2023-02-26T12:38:46.123Z,101320.00
2023-02-26T12:41:20.647Z,101318.00
2023-02-26T14:27:07.675Z,101236.00
2023-02-26T14:30:11.011Z,101240.00
2023-02-26T14:34:06.838Z,101237.00
2023-02-26T14:36:48.086Z,101233.00
2023-02-26T14:46:22.477Z,101224.00
2023-02-26T14:48:40.562Z,101222.00
2023-02-26T14:51:55.078Z,101215.00
2023-02-26T14:55:19.299Z,101210.00
2023-02-26T15:01:57.845Z,101206.00
2023-02-26T15:12:06.780Z,101186.00
2023-02-26T15:22:06.185Z,101194.00
2023-02-26T15:46:46.825Z,101169.00
2023-02-26T15:49:06.044Z,101164.00
2023-02-26T15:51:48.485Z,101155.00
2023-02-26T15:54:24.170Z,101144.00
2023-02-26T15:57:11.527Z,101134.00
2023-02-26T16:00:10.968Z,101133.00
2023-02-26T16:02:53.006Z,101133.00
2023-02-26T16:05:43.660Z,101124.00
2023-02-26T16:08:19.302Z,101127.00
2023-02-26T16:10:52.769Z,101123.00
2023-02-26T16:13:33.492Z,101134.00
2023-02-26T16:16:09.725Z,101128.00
2023-02-26T16:18:44.142Z,101130.00
2023-02-26T16:21:19.171Z,101129.00
2023-02-26T16:23:59.438Z,101120.00
2023-02-26T16:26:49.110Z,101130.00
2023-02-26T16:29:23.666Z,101129.00
2023-02-26T16:32:18.368Z,101126.00
2023-02-26T16:37:58.233Z,101109.00
2023-02-26T16:43:42.739Z,101119.00
2023-02-26T16:46:22.357Z,101115.00
2023-02-26T16:49:10.484Z,101112.00
2023-02-26T16:51:46.423Z,101114.00
2023-02-26T16:54:22.647Z,101110.00
2023-02-26T16:57:07.758Z,101111.00
2023-02-26T16:59:50.896Z,101099.00
2023-02-26T17:02:43.403Z,101094.00
2023-02-26T17:05:24.821Z,101100.00
2023-02-26T17:08:01.976Z,101093.00
2023-02-26T17:14:15.293Z,101093.00
2023-02-26T17:20:28.390Z,101094.00
2023-02-26T17:26:23.528Z,101094.00
2023-02-26T17:29:08.995Z,101100.00
2023-02-26T17:31:50.056Z,101111.00
2023-02-26T17:34:24.711Z,101118.00
2023-02-26T17:36:59.099Z,101115.00
2023-02-26T17:39:33.087Z,101113.00
2023-02-26T17:42:10.208Z,101124.00
2023-02-26T17:44:48.236Z,101120.00
2023-02-26T17:47:27.873Z,101117.00
2023-02-26T17:50:08.113Z,101119.00
2023-02-26T17:52:43.328Z,101130.00
2023-02-26T17:55:26.387Z,101134.00
2023-02-26T18:00:51.692Z,101130.00
2023-02-26T18:03:43.808Z,101120.00
2023-02-26T18:06:17.486Z,101127.00
2023-02-26T18:08:56.207Z,101121.00
2023-02-26T18:11:29.160Z,101121.00
2023-02-26T18:14:03.110Z,101129.00
2023-02-26T18:16:40.769Z,101129.00
2023-02-26T18:19:15.992Z,101137.00
2023-02-26T18:21:48.996Z,101136.00
2023-02-26T18:24:21.897Z,101149.00
2023-02-26T18:26:55.069Z,101147.00
2023-02-26T18:29:28.095Z,101140.00
2023-02-26T18:32:02.351Z,101141.00
2023-02-26T18:34:40.279Z,101148.00
2023-02-26T18:37:18.167Z,101140.00
2023-02-26T18:39:51.235Z,101142.00
2023-02-26T18:42:29.114Z,101152.00
2023-02-26T18:45:01.847Z,101153.00
2023-02-26T18:47:36.819Z,101147.00
2023-02-26T18:50:09.513Z,101147.00
2023-02-26T18:52:42.710Z,101144.00
2023-02-26T18:55:17.396Z,101136.00
2023-02-26T18:57:50.421Z,101141.00
2023-02-26T19:00:23.979Z,101130.00
2023-02-26T19:02:59.562Z,101127.00
2023-02-26T19:05:32.415Z,101120.00
2023-02-26T19:08:05.804Z,101122.00
2023-02-26T19:10:38.679Z,101121.00
2023-02-26T19:13:11.632Z,101120.00
2023-02-26T19:15:44.414Z,101120.00
2023-02-26T19:18:17.403Z,101120.00
2023-02-26T19:20:50.382Z,101126.00
2023-02-26T19:23:26.500Z,101125.00
2023-02-26T19:25:59.364Z,101125.00
2023-02-26T19:28:32.249Z,101120.00
2023-02-26T19:31:05.249Z,101118.00
2023-02-26T19:33:38.437Z,101120.00
2023-02-26T19:36:12.180Z,101123.00
2023-02-26T19:38:46.550Z,101116.00
2023-02-26T19:41:20.784Z,101110.00
2023-02-26T19:43:53.962Z,101119.00
2023-02-26T19:46:27.046Z,101119.00
2023-02-26T19:49:00.351Z,101114.00
2023-02-26T19:51:33.414Z,101116.00
2023-02-26T19:54:06.375Z,101122.00
2023-02-26T19:56:39.256Z,101124.00
2023-02-26T19:59:12.307Z,101116.00
2023-02-26T20:01:45.875Z,101116.00
2023-02-26T20:04:19.121Z,101121.00
2023-02-26T20:06:52.094Z,101121.00
2023-02-26T20:09:25.023Z,101120.00
2023-02-26T20:11:58.063Z,101117.00
2023-02-26T20:14:31.097Z,101121.00
2023-02-26T20:17:04.108Z,101122.00
2023-02-26T20:19:37.007Z,101127.00
2023-02-26T20:22:10.234Z,101126.00
2023-02-26T20:24:43.245Z,101126.00
2023-02-26T20:27:16.027Z,101120.00
2023-02-26T20:29:49.115Z,101120.00
2023-02-26T20:32:45.335Z,101120.00
2023-02-26T20:35:18.408Z,101120.00
2023-02-26T20:37:51.412Z,101114.00
2023-02-26T20:40:27.258Z,101116.00
2023-02-26T20:43:00.600Z,101111.00
2023-02-26T20:45:33.883Z,101105.00
2023-02-26T20:48:06.807Z,101111.00
2023-02-26T20:50:41.257Z,101108.00
2023-02-26T20:53:18.465Z,101108.00
2023-02-26T20:55:51.872Z,101106.00
2023-02-26T20:58:24.913Z,101106.00
2023-02-26T21:01:01.481Z,101105.00
2023-02-26T21:03:34.429Z,101103.00
2023-02-26T21:06:11.922Z,101115.00
2023-02-26T21:08:45.715Z,101115.00
2023-02-26T21:11:18.639Z,101117.00
2023-02-26T21:13:54.331Z,101125.00
2023-02-26T21:16:27.540Z,101123.00
2023-02-26T21:19:02.115Z,101122.00
2023-02-26T21:21:37.949Z,101123.00
2023-02-26T21:24:11.352Z,101121.00
2023-02-26T21:26:44.607Z,101109.00
2023-02-26T21:29:17.751Z,101119.00
2023-02-26T21:31:52.191Z,101107.00
2023-02-26T21:34:34.169Z,101106.00
2023-02-26T21:37:00.548Z,101119.00
2023-02-26T21:39:33.541Z,101117.00
2023-02-26T21:42:06.668Z,101114.00
2023-02-26T21:44:39.878Z,101116.00
2023-02-26T21:47:13.071Z,101103.00
2023-02-26T21:49:46.114Z,101095.00
2023-02-26T21:52:19.276Z,101103.00
2023-02-26T21:54:52.592Z,101105.00
2023-02-26T21:57:28.892Z,101106.00
2023-02-26T22:00:02.052Z,101110.00
2023-02-26T22:02:35.110Z,101109.00
2023-02-26T22:05:27.199Z,101112.00
2023-02-26T22:08:00.247Z,101106.00
2023-02-26T22:10:33.318Z,101103.00
2023-02-26T22:13:06.218Z,101089.00
2023-02-26T22:15:39.213Z,101083.00
2023-02-26T22:18:12.228Z,101081.00
2023-02-26T22:20:44.982Z,101078.00
2023-02-26T22:23:17.943Z,101078.00
2023-02-26T22:25:50.757Z,101082.00
2023-02-26T22:28:23.911Z,101102.00
2023-02-26T22:30:58.293Z,101090.00
2023-02-26T22:33:31.399Z,101087.00
2023-02-26T22:36:04.362Z,101073.00
2023-02-26T22:38:37.581Z,101065.00
2023-02-26T22:41:10.541Z,101060.00
2023-02-26T22:43:43.941Z,101063.00
2023-02-26T22:46:18.125Z,101058.00
2023-02-26T22:48:51.204Z,101067.00
2023-02-26T22:51:24.253Z,101065.00
2023-02-26T22:54:00.915Z,101053.00
2023-02-26T22:56:34.013Z,101065.00
2023-02-26T22:59:12.396Z,101060.00
2023-02-26T23:01:45.833Z,101071.00
2023-02-26T23:04:19.349Z,101070.00
2023-02-26T23:06:52.180Z,101064.00
2023-02-26T23:09:29.380Z,101060.00
2023-02-26T23:12:02.526Z,101057.00
2023-02-26T23:17:56.073Z,101069.00
2023-02-26T23:20:29.111Z,101070.00
2023-02-26T23:23:02.469Z,101076.00
2023-02-26T23:25:35.301Z,101075.00
2023-02-26T23:28:08.105Z,101067.00
2023-02-26T23:30:41.606Z,101064.00
2023-02-26T23:33:14.991Z,101071.00
2023-02-26T23:35:48.036Z,101083.00
2023-02-26T23:38:20.921Z,101080.00
2023-02-26T23:40:58.139Z,101072.00
2023-02-26T23:43:31.310Z,101066.00
2023-02-26T23:46:04.088Z,101067.00
2023-02-26T23:48:36.905Z,101069.00
2023-02-26T23:51:12.941Z,101068.00
2023-02-26T23:53:45.806Z,101070.00
2023-02-26T23:56:18.878Z,101072.00
2023-02-26T23:58:51.807Z,101068.00
